Latest Weather Observations for Laverton

IDV60901

Issued at 11:21 pm EST Tuesday 7 April 2020 (issued every 10 minutes, with the page automatically refreshed every 10 minutes)

About weather observations | Map of Melbourne area stations | Latest observations for Melbourne area | Other Formats
Station Details ID: 087031 Name: LAVERTON RAAF Lat: -37.86 Lon: 144.76 Height: 20.1 m
Data from the previous 72 hours. | See also: Recent months at Laverton
Date/Time
EST
Temp
°C
App
Temp
°C
Dew
Point
°C
Rel
Hum
%
Delta-T
°C
Wind Press
QNH
hPa
Press
MSL
hPa
Rain since
9am
mm
Dir  Spd
km/h
Gust
km/h
Spd
kts
Gust
kts
07/11:08pm 12.3 11.2 12.1 99 0.1 S 9 13 5 7 1023.8 1023.8 0.4
07/11:03pm 12.3 10.9 12.1 99 0.1 S 11 15 6 8 1023.9 1023.9 0.2
07/11:00pm 12.3 10.9 12.1 99 0.1 SSW 11 15 6 8 1023.9 1023.9 0.0
07/10:30pm 12.4 10.5 11.8 96 0.3 SW 13 19 7 10 1024.0 1024.0 0.0
07/10:00pm 12.3 10.7 11.4 94 0.5 SW 11 15 6 8 1024.0 1024.0 0.0
07/09:30pm 12.4 10.2 10.8 90 0.8 SW 13 17 7 9 1024.0 1024.0 0.0
07/09:00pm 12.9 10.5 10.1 83 1.4 SW 13 22 7 12 1023.8 1023.8 0.0
07/08:30pm 12.9 11.2 9.9 82 1.5 SSW 9 11 5 6 1023.8 1023.8 0.0
07/08:00pm 12.9 11.2 9.7 81 1.6 SW 9 13 5 7 1023.8 1023.8 0.0
07/07:30pm 13.2 10.3 9.8 80 1.7 SSW 15 24 8 13 1023.7 1023.7 0.0
07/07:00pm 13.3 10.7 9.4 77 2.0 SSW 13 19 7 10 1023.4 1023.4 0.0
07/06:30pm 13.1 10.4 9.0 76 2.1 SSW 13 20 7 11 1023.2 1023.2 0.0
07/06:00pm 12.9 9.9 9.4 79 1.8 SSW 15 22 8 12 1023.1 1023.1 0.0
07/05:30pm 12.8 9.1 10.0 83 1.4 SSW 20 28 11 15 1022.8 1022.8 0.0
07/05:00pm 14.1 9.9 9.7 75 2.3 SSW 22 32 12 17 1022.5 1022.5 0.0
07/04:30pm 14.8 11.2 8.3 65 3.3 S 17 22 9 12 1022.5 1022.5 0.0
07/04:00pm 15.0 11.9 8.7 66 3.2 SSE 15 24 8 13 1022.6 1022.6 0.0
07/03:30pm 15.2 11.8 7.7 61 3.7 S 15 20 8 11 1022.8 1022.8 0.0
07/03:00pm 15.2 11.7 7.3 59 3.9 S 15 22 8 12 1022.9 1022.9 0.0
07/02:30pm 15.1 11.7 7.6 61 3.7 S 15 20 8 11 1023.1 1023.1 0.0
07/02:00pm 15.1 11.4 7.9 62 3.6 S 17 24 9 13 1023.2 1023.2 0.0
07/01:30pm 15.3 11.7 6.8 57 4.2 SSE 15 20 8 11 1023.3 1023.3 0.0
07/01:00pm 15.2 11.5 6.5 56 4.2 SSE 15 20 8 11 1023.7 1023.7 0.0
07/12:30pm 15.2 12.0 7.0 58 4.0 S 13 20 7 11 1024.1 1024.1 0.0
07/12:00pm 15.8 13.7 8.3 61 3.8 SSE 9 20 5 11 1024.4 1024.4 0.0
07/11:30am 14.8 13.4 9.6 71 2.7 W 7 11 4 6 1024.6 1024.6 0.0
07/11:00am 13.7 11.5 9.4 75 2.2 WNW 11 13 6 7 1024.8 1024.8 0.0
07/10:30am 13.4 10.7 9.1 75 2.2 W 13 15 7 8 1024.9 1024.9 0.0
07/10:00am 13.1 11.2 9.2 77 2.0 WSW 9 13 5 7 1024.9 1024.9 0.0
07/09:30am 12.7 10.8 9.2 79 1.8 W 9 13 5 7 1024.8 1024.8 0.0
07/09:00am 12.5 10.6 9.1 80 1.7 W 9 13 5 7 1024.6 1024.6 0.0
07/08:30am 12.4 10.5 9.2 81 1.6 W 9 13 5 7 1024.3 1024.3 0.0
07/08:00am 12.2 10.0 9.4 83 1.4 W 11 13 6 7 1023.9 1023.9 0.0
07/07:30am 12.0 10.2 9.6 85 1.2 NNW 9 11 5 6 1023.7 1023.7 0.0
07/07:00am 12.0 10.0 8.8 81 1.6 N 9 11 5 6 1023.6 1023.6 0.0
07/06:30am 12.0 10.4 8.8 81 1.6 SW 7 9 4 5 1023.3 1023.3 0.0
07/06:00am 11.9 10.0 9.1 83 1.4 SW 9 11 5 6 1023.3 1023.3 0.0
07/05:30am 12.1 10.2 8.9 81 1.6 SW 9 13 5 7 1023.0 1023.0 0.0
07/05:00am 11.9 10.6 9.1 83 1.4 SW 6 9 3 5 1022.9 1022.9 0.0
07/04:30am 11.9 9.6 8.9 82 1.5 SSW 11 13 6 7 1023.2 1023.2 0.0
07/04:00am 12.0 8.8 8.5 79 1.7 SSW 15 20 8 11 1023.0 1023.0 0.0
07/03:30am 12.2 9.1 8.7 79 1.7 S 15 22 8 12 1023.1 1023.1 0.0
07/03:00am 12.1 10.1 8.8 80 1.6 SW 9 13 5 7 1023.2 1023.2 0.0
07/02:30am 12.4 9.5 8.3 76 2.0 SW 13 17 7 9 1023.4 1023.4 0.0
07/02:00am 12.5 9.5 7.6 72 2.4 SW 13 15 7 8 1023.6 1023.6 0.0
07/01:30am 12.7 10.2 8.0 73 2.3 SW 11 15 6 8 1023.5 1023.5 0.0
07/01:00am 12.7 9.7 7.8 72 2.4 SW 13 19 7 10 1023.7 1023.7 0.0
07/12:30am 12.8 10.6 7.9 72 2.4 SSW 9 13 5 7 1023.7 1023.7 0.0
07/12:00am 12.8 10.3 8.1 73 2.3 SSW 11 15 6 8 1023.8 1023.8 0.0
 
Date/Time
EST
Temp
°C
App
Temp
°C
Dew
Point
°C
Rel
Hum
%
Delta-T
°C
Wind Press
QNH
hPa
Press
MSL
hPa
Rain since
9am
mm
Dir  Spd
km/h
Gust
km/h
Spd
kts
Gust
kts
06/11:30pm 13.0 11.2 8.1 72 2.4 WSW 7 11 4 6 1023.9 1023.9 0.0
06/11:00pm 13.0 11.0 8.5 74 2.2 SW 9 11 5 6 1023.9 1023.9 0.0
06/10:30pm 13.2 10.8 8.7 74 2.3 SW 11 15 6 8 1024.0 1024.0 0.0
06/10:00pm 13.4 11.4 8.7 73 2.3 SSW 9 11 5 6 1024.1 1024.1 0.0
06/09:30pm 13.5 11.5 8.8 73 2.4 SSW 9 13 5 7 1024.2 1024.2 0.0
06/09:00pm 13.7 10.9 8.5 71 2.6 SSW 13 17 7 9 1024.1 1024.1 0.0
06/08:30pm 13.6 11.1 8.2 70 2.7 S 11 17 6 9 1024.0 1024.0 0.0
06/08:00pm 13.6 11.5 8.2 70 2.7 S 9 15 5 8 1023.7 1023.7 0.0
06/07:30pm 13.7 10.9 8.7 72 2.5 S 13 17 7 9 1023.5 1023.5 0.0
06/07:00pm 13.8 11.4 8.8 72 2.5 S 11 15 6 8 1023.2 1023.2 0.0
06/06:30pm 13.9 11.4 8.3 69 2.8 S 11 17 6 9 1022.9 1022.9 0.0
06/06:00pm 14.1 11.7 8.5 69 2.8 S 11 17 6 9 1022.7 1022.7 0.0
06/05:30pm 14.2 11.4 8.6 69 2.8 SSE 13 19 7 10 1022.5 1022.5 0.0
06/05:00pm 14.5 11.7 8.5 67 3.0 SSE 13 17 7 9 1022.3 1022.3 0.0
06/04:30pm 14.9 11.9 7.7 62 3.6 SSE 13 19 7 10 1022.0 1022.0 0.0
06/04:00pm 15.0 11.9 7.3 60 3.8 SSE 13 19 7 10 1021.9 1021.9 0.0
06/03:30pm 15.3 12.6 8.8 65 3.3 S 13 20 7 11 1021.9 1021.9 0.0
06/03:00pm 15.1 11.2 7.2 59 3.9 SSW 17 20 9 11 1021.9 1021.9 0.0
06/02:30pm 15.4 11.4 6.7 56 4.3 SSW 17 22 9 12 1021.7 1021.7 0.0
06/02:00pm 15.3 11.3 6.8 57 4.1 SSW 17 24 9 13 1021.7 1021.7 0.0
06/01:30pm 15.8 12.5 6.3 53 4.6 SSW 13 19 7 10 1021.6 1021.6 0.0
06/01:00pm 15.7 11.7 6.7 55 4.4 SSW 17 26 9 14 1021.9 1021.9 0.0
06/12:30pm 14.8 10.5 6.9 59 3.9 SSW 19 26 10 14 1022.0 1022.0 0.0
06/12:00pm 15.5 11.9 8.3 62 3.6 SW 17 24 9 13 1021.9 1021.9 0.0
06/11:30am 15.0 10.9 7.8 62 3.6 SSW 19 26 10 14 1022.0 1022.0 0.0
06/11:00am 15.3 11.4 7.1 58 4.0 SSW 17 24 9 13 1022.0 1022.0 0.0
06/10:30am 14.9 10.5 6.7 58 4.0 SW 19 24 10 13 1021.8 1021.8 0.0
06/10:00am 14.5 10.9 8.2 66 3.1 WSW 17 22 9 12 1021.7 1021.7 0.0
06/09:30am 13.8 11.2 9.3 74 2.3 WSW 13 20 7 11 1021.6 1021.6 0.0
06/09:00am 12.7 9.7 9.2 79 1.8 W 15 22 8 12 1021.4 1021.4 2.8
06/08:30am 12.3 8.5 9.1 81 1.6 WSW 19 28 10 15 1021.2 1021.2 2.8
06/08:00am 11.2 8.8 10.1 93 0.6 W 13 19 7 10 1020.8 1020.8 2.8
06/07:30am 9.8 7.3 9.7 99 0.1 W 13 15 7 8 1020.3 1020.3 2.8
06/07:00am 8.8 6.4 8.7 99 0.0 W 11 13 6 7 1020.0 1019.9 2.8
06/06:30am 8.4 6.3 8.3 99 0.0 WNW 9 13 5 7 1019.6 1019.5 2.8
06/06:00am 9.1 6.8 9.0 99 0.0 WNW 11 13 6 7 1019.1 1019.0 2.8
06/05:30am 9.3 6.7 9.2 99 0.0 WNW 13 17 7 9 1018.6 1018.5 2.8
06/05:00am 10.1 7.7 10.0 99 0.1 WNW 13 15 7 8 1018.2 1018.1 2.8
06/04:30am 9.9 7.8 9.8 99 0.1 WNW 11 15 6 8 1017.9 1017.8 2.8
06/04:00am 9.7 7.6 9.6 99 0.0 WNW 11 13 6 7 1017.5 1017.4 2.8
06/03:30am 9.4 6.8 9.3 99 0.0 WNW 13 13 7 7 1017.0 1016.9 2.8
06/03:00am 9.5 7.7 9.4 99 0.0 NW 9 13 5 7 1016.9 1016.8 2.8
06/02:30am 9.1 7.2 9.0 99 0.0 NW 9 11 5 6 1016.6 1016.5 2.8
06/02:00am 9.0 6.3 8.9 99 0.0 WNW 13 15 7 8 1016.6 1016.5 2.8
06/01:30am 9.5 6.9 9.2 98 0.1 NW 13 15 7 8 1016.2 1016.1 2.8
06/01:00am 10.0 8.3 9.7 98 0.2 NW 9 11 5 6 1016.0 1015.9 2.8
06/12:30am 10.6 8.6 10.0 96 0.3 NW 11 15 6 8 1015.9 1015.8 2.8
06/12:00am 11.3 9.0 10.5 95 0.4 NW 13 17 7 9 1015.7 1015.6 2.8
 
Date/Time
EST
Temp
°C
App
Temp
°C
Dew
Point
°C
Rel
Hum
%
Delta-T
°C
Wind Press
QNH
hPa
Press
MSL
hPa
Rain since
9am
mm
Dir  Spd
km/h
Gust
km/h
Spd
kts
Gust
kts
05/11:30pm 12.1 10.3 10.7 91 0.7 WNW 11 17 6 9 1015.6 1015.5 2.8
05/11:00pm 12.2 9.9 10.4 89 0.9 WNW 13 19 7 10 1015.6 1015.5 2.8
05/10:30pm 12.3 10.0 10.5 89 0.9 WNW 13 19 7 10 1015.4 1015.3 2.8
05/10:00pm 12.2 10.3 10.6 90 0.8 WNW 11 15 6 8 1015.3 1015.2 2.8
05/09:30pm 12.0 10.1 10.4 90 0.8 NW 11 13 6 7 1014.9 1014.8 2.8
05/09:00pm 12.6 10.4 10.7 88 1.0 WNW 13 17 7 9 1014.6 1014.5 2.8
05/08:30pm 12.7 10.1 10.6 87 1.1 W 15 19 8 10 1014.0 1013.9 2.8
05/08:00pm 12.9 9.5 10.6 86 1.2 W 19 24 10 13 1013.6 1013.5 2.8
05/07:30pm 13.0 10.9 11.1 88 1.0 W 13 19 7 10 1013.3 1013.2 2.8
05/07:00pm 12.9 9.6 11.5 91 0.7 WSW 20 30 11 16 1012.6 1012.5 2.8
05/06:40pm 13.0 8.6 11.7 92 0.7 SW 26 39 14 21 1012.2 1012.1 2.8
05/06:30pm 13.4 8.9 11.3 87 1.1 SW 26 41 14 22 1011.8 1011.7 2.8
05/06:29pm 13.4 9.2 11.1 86 1.2 SW 24 41 13 22 1011.8 1011.7 2.8
05/06:00pm 14.4 11.5 11.0 80 1.8 WSW 17 26 9 14 1010.6 1010.6 2.6
05/05:30pm 14.7 10.8 10.7 77 2.1 WSW 22 30 12 16 1009.8 1009.8 2.6
05/05:00pm 15.3 12.0 11.7 79 1.9 WSW 20 32 11 17 1009.4 1009.4 2.6
05/04:30pm 15.1 11.3 12.4 84 1.5 WSW 24 33 13 18 1009.0 1009.0 2.6
05/04:00pm 15.5 11.8 12.6 83 1.6 W 24 35 13 19 1008.5 1008.5 2.6
05/03:30pm 15.5 13.1 13.7 89 1.0 WSW 19 24 10 13 1008.1 1008.1 2.4
05/03:01pm 14.3 11.8 13.5 95 0.4 W 19 26 10 14 1007.9 1007.9 2.4
05/03:00pm 14.3 11.8 13.5 95 0.4 W 19 26 10 14 1007.9 1007.9 2.4
05/02:32pm 15.0 11.7 12.9 87 1.2 WSW 22 35 12 19 1007.8 1007.8 1.8
05/02:30pm 15.2 11.9 12.9 86 1.3 WSW 22 35 12 19 1007.7 1007.7 1.8
05/02:15pm 15.0 11.9 13.5 91 0.8 W 22 35 12 19 1007.5 1007.5 1.8
05/02:00pm 14.7 10.5 13.4 92 0.7 W 28 37 15 20 1007.4 1007.4 1.4
05/01:30pm 13.8 7.9 12.4 91 0.8 WSW 35 59 19 32 1007.2 1007.2 0.8
05/01:27pm 13.9 8.4 12.6 92 0.7 WSW 33 59 18 32 1007.3 1007.3 0.8
05/01:13pm 14.4 8.9 11.7 84 1.5 W 32 44 17 24 1007.3 1007.3 0.4
05/01:00pm 16.5 10.9 12.1 75 2.4 WNW 33 46 18 25 1006.5 1006.5 0.2
05/12:37pm 15.9 9.7 12.5 80 1.9 WNW 37 56 20 30 1006.6 1006.6 0.2
05/12:30pm 16.1 8.5 11.9 76 2.3 WNW 43 54 23 29 1006.7 1006.7 0.2
05/12:13pm 15.8 8.6 12.0 78 2.1 WNW 41 56 22 30 1006.5 1006.5 0.2
05/12:00pm 15.6 8.7 11.6 77 2.2 WNW 39 59 21 32 1006.5 1006.5 0.2
05/11:54am 15.5 8.9 11.3 76 2.3 WNW 37 56 20 30 1006.6 1006.6 0.0
05/11:51am 15.7 9.1 11.3 75 2.4 WNW 37 50 20 27 1006.6 1006.6 0.0
05/11:40am 16.8 9.5 10.2 65 3.5 NW 39 65 21 35 1006.4 1006.4 0.0
05/11:30am 16.5 10.1 10.6 68 3.1 NW 35 52 19 28 1006.3 1006.3 0.0
05/11:13am 16.5 9.9 10.1 66 3.4 NW 35 59 19 32 1006.2 1006.2 0.0
05/11:00am 15.9 9.2 9.6 66 3.3 NW 35 52 19 28 1006.2 1006.2 0.0
05/10:30am 15.2 8.4 9.3 68 3.0 NW 35 56 19 30 1006.1 1006.1 0.0
05/10:00am 15.3 7.4 9.2 67 3.1 NW 41 63 22 34 1005.8 1005.8 0.0
05/09:30am 15.0 7.3 8.7 66 3.2 NW 39 57 21 31 1005.5 1005.5 0.0
05/09:00am 14.2 6.0 8.4 68 2.9 NW 41 61 22 33 1005.4 1005.4 -
05/08:30am 13.2 6.1 7.9 70 2.6 NW 35 54 19 29 1005.6 1005.6 -
05/08:00am 12.5 5.8 7.4 71 2.5 NW 32 50 17 27 1005.6 1005.6 -
05/07:34am 12.2 5.3 7.1 71 2.5 NNW 33 52 18 28 1005.1 1005.1 -
05/07:30am 12.0 5.0 6.9 71 2.4 NW 33 48 18 26 1005.1 1005.1 -
05/07:00am 11.8 4.9 6.5 70 2.5 NW 32 48 17 26 1004.8 1004.8 -
05/06:30am 11.1 4.9 6.0 71 2.4 NW 28 43 15 23 1005.1 1005.1 -
05/06:00am 10.7 5.1 5.5 70 2.4 NNW 24 33 13 18 1004.9 1004.9 -
05/05:30am 9.7 5.0 5.3 74 2.0 N 19 26 10 14 1005.2 1005.2 -
05/05:00am 9.8 4.9 5.2 73 2.1 N 20 32 11 17 1005.6 1005.6 -
05/04:30am 9.9 5.0 5.3 73 2.1 N 20 35 11 19 1005.7 1005.7 -
05/04:00am 9.6 4.6 4.8 72 2.2 NNW 20 30 11 16 1006.3 1006.3 -
05/03:30am 9.4 4.6 4.4 71 2.2 NNW 19 32 10 17 1006.6 1006.6 -
05/03:00am 9.6 - 4.8 72 2.2 - - - - - 1006.3 1006.3 -
05/03:30am 9.7 4.4 4.9 72 2.2 NNW 22 33 12 18 1006.1 1006.1 3.4
05/03:00am 9.6 4.6 4.6 71 2.2 NNW 20 30 11 16 1006.9 1006.9 3.4
05/02:30am 9.7 4.9 4.5 70 2.3 NNW 19 28 10 15 1007.2 1007.2 3.4
05/02:00am 9.2 5.2 4.8 74 2.0 NNW 15 22 8 12 1007.4 1007.4 3.4
05/01:30am 9.5 4.7 4.9 73 2.1 NNW 19 28 10 15 1007.4 1007.4 3.4
05/01:00am 9.0 4.3 5.2 77 1.7 NNW 19 22 10 12 1007.9 1007.9 3.4
05/12:30am 8.7 4.0 5.3 79 1.5 NNW 19 24 10 13 1007.8 1007.8 3.4

Latest Capital City Observations: Canberra | Sydney | Melbourne | Brisbane | Adelaide | Perth | Hobart | Darwin

Other formats

Comma delimited format used in spreadsheet applications
http://www.bom.gov.au/fwo/IDV60901/IDV60901.94865.axf

JavaScript Object Notation format (JSON) in row-major order
http://www.bom.gov.au/fwo/IDV60901/IDV60901.94865.json

Data quality

Most of these data are generated automatically and are frequently updated. Quality checks on data are not normally performed. It is possible for incorrect values to appear. Refer to information at About Latest Weather Observations and please check the disclaimer before using these data.